Time;durP1;ratioP1;P1;durP2;ratioP2;P2;SDS_P1;SDS_P2;PMS_P1;PMS_P2;Temp;Humidity;BMP_temperature;BMP_pressure;BME280_temperature;BME280_humidity;BME280_pressure;Samples;Min_cycle;Max_cycle;Signal;HPM_P1;HPM_P2
2023/03/15 00:01:28;;;;;;;1.35;0.68;;;7.30;65.40;;;2.43;100.00;95085.97;4852189;29;20516;-50
2023/03/15 00:03:54;;;;;;;1.65;0.60;;;7.20;66.20;;;2.34;100.00;95092.56;4859362;29;20044;-54
2023/03/15 00:06:20;;;;;;;1.40;0.50;;;7.10;65.40;;;2.28;100.00;95091.63;4857996;29;20481;-54
2023/03/15 00:08:46;;;;;;;2.60;0.70;;;7.10;65.50;;;2.32;100.00;95099.91;4859319;29;20400;-53
2023/03/15 00:11:15;;;;;;;2.20;0.60;;;7.10;65.60;;;2.30;100.00;95109.81;4859341;29;20104;-51
2023/03/15 00:13:42;;;;;;;1.60;0.77;;;7.00;65.70;;;2.30;100.00;95115.88;4856959;29;20033;-54
2023/03/15 00:16:08;;;;;;;0.63;0.63;;;7.00;65.80;;;2.34;100.00;95118.06;4859125;29;20069;-52
2023/03/15 00:18:34;;;;;;;1.23;0.50;;;7.00;65.90;;;2.31;100.00;95114.84;4858046;29;20039;-51
2023/03/15 00:21:00;;;;;;;3.03;0.80;;;7.00;66.00;;;2.36;100.00;95108.94;4858756;29;20041;-54
2023/03/15 00:23:26;;;;;;;1.58;0.80;;;7.00;66.10;;;2.32;100.00;95120.94;4859296;29;20065;-56
2023/03/15 00:25:53;;;;;;;1.52;0.85;;;7.00;66.30;;;2.32;100.00;95123.56;4858289;29;20040;-50
2023/03/15 00:28:20;;;;;;;1.65;0.70;;;7.00;66.50;;;2.31;100.00;95128.00;4859266;29;20215;-53
2023/03/15 00:30:46;;;;;;;2.33;0.77;;;7.00;66.60;;;2.39;100.00;95128.72;4857738;29;20124;-48
2023/03/15 00:33:14;;;;;;;2.40;0.75;;;7.00;66.60;;;2.39;100.00;95126.88;4861683;29;20445;-51
2023/03/15 00:35:44;;;;;;;1.67;0.75;;;7.00;66.80;;;2.36;100.00;95137.06;4862971;29;20399;-49
2023/03/15 00:38:10;;;;;;;2.50;1.05;;;7.00;66.80;;;2.38;100.00;95148.13;4861958;29;20021;-51
2023/03/15 00:40:37;;;;;;;2.08;0.80;;;7.00;66.70;;;2.34;100.00;95154.88;4862892;29;20037;-53
2023/03/15 00:43:03;;;;;;;1.05;0.88;;;7.00;66.70;;;2.33;100.00;95161.94;4861702;29;20384;-50
2023/03/15 00:45:29;;;;;;;1.65;1.10;;;7.00;66.80;;;2.33;100.00;95169.84;4862438;29;20033;-55
2023/03/15 00:47:55;;;;;;;1.98;0.90;;;7.00;66.80;;;2.31;100.00;95175.31;4862520;29;20036;-51
2023/03/15 00:50:23;;;;;;;4.47;1.00;;;7.00;66.90;;;2.31;100.00;95182.38;4860784;29;20373;-50
2023/03/15 00:52:49;;;;;;;1.42;0.90;;;7.00;66.80;;;2.30;100.00;95186.06;4862550;29;20017;-52
2023/03/15 00:55:19;;;;;;;2.78;1.38;;;6.90;66.70;;;2.27;100.00;95195.19;4861240;29;20055;-52
2023/03/15 00:57:46;;;;;;;2.63;1.30;;;6.90;66.80;;;2.24;100.00;95194.81;4862245;29;20503;-52
2023/03/15 01:00:23;;;;;;;1.60;1.30;;;6.90;66.80;;;2.21;100.00;95192.63;4862204;29;20040;-52
2023/03/15 01:02:51;;;;;;;2.75;1.00;;;6.90;66.80;;;2.22;100.00;95208.16;4856602;29;20069;-52
2023/03/15 01:05:17;;;;;;;3.35;1.30;;;6.90;66.80;;;2.20;100.00;95212.88;4862532;29;20109;-54
2023/03/15 01:07:46;;;;;;;1.90;1.23;;;6.90;66.80;;;2.18;100.00;95220.16;4860065;29;20033;-52
2023/03/15 01:10:15;;;;;;;2.42;1.45;;;6.90;66.80;;;2.18;100.00;95219.34;4862063;29;20120;-49
2023/03/15 01:12:41;;;;;;;3.83;1.30;;;6.80;66.80;;;2.16;100.00;95224.03;4860677;29;20024;-51
2023/03/15 01:15:11;;;;;;;1.63;1.40;;;6.80;66.70;;;2.11;100.00;95231.78;4862008;29;20076;-52
2023/03/15 01:17:37;;;;;;;3.28;1.60;;;6.80;66.80;;;2.08;100.00;95240.91;4862015;29;20032;-53
2023/03/15 01:20:05;;;;;;;2.45;1.70;;;6.80;67.60;;;2.11;100.00;95252.81;4861148;29;20512;-53
2023/03/15 01:22:31;;;;;;;3.97;1.73;;;6.80;66.90;;;2.08;100.00;95259.28;4861945;29;20084;-50
2023/03/15 01:24:57;;;;;;;2.63;1.90;;;6.80;66.90;;;2.07;100.00;95260.31;4861045;29;20033;-54
2023/03/15 01:27:23;;;;;;;2.03;1.48;;;6.80;66.90;;;2.04;100.00;95258.94;4861614;29;20395;-56
2023/03/15 01:29:49;;;;;;;3.55;1.80;;;6.70;66.80;;;2.01;100.00;95258.56;4857656;29;20033;-53
2023/03/15 01:32:15;;;;;;;1.90;1.60;;;6.70;66.80;;;1.96;100.00;95253.16;4857365;29;20072;-54
2023/03/15 01:34:42;;;;;;;2.05;1.85;;;6.70;66.90;;;1.91;100.00;95263.50;4861975;29;20552;-52
2023/03/15 01:37:13;;;;;;;3.50;1.70;;;6.70;66.80;;;1.90;100.00;95267.16;4860792;29;20498;-55
2023/03/15 01:39:40;;;;;;;2.28;1.95;;;6.60;66.70;;;1.81;100.00;95264.00;4861628;29;20473;-55
2023/03/15 01:42:08;;;;;;;2.67;1.90;;;6.60;66.70;;;1.78;100.00;95272.31;4860890;29;20556;-51
2023/03/15 01:44:53;;;;;;;2.45;1.90;;;6.50;66.70;;;1.76;100.00;95274.38;4858904;29;20055;-52
2023/03/15 01:47:21;;;;;;;2.22;1.83;;;6.50;66.70;;;1.74;100.00;95282.47;4861860;29;20027;-51
2023/03/15 01:50:08;;;;;;;3.67;2.47;;;6.50;66.70;;;1.73;100.00;95286.13;4860430;29;20039;-53
2023/03/15 01:52:40;;;;;;;3.90;2.35;;;6.50;67.60;;;1.71;100.00;95284.72;4861210;29;20029;-50
2023/03/15 01:55:14;;;;;;;3.25;2.22;;;6.50;66.90;;;1.69;100.00;95298.03;4857409;29;20056;-51
2023/03/15 01:57:54;;;;;;;3.08;2.30;;;6.50;66.80;;;1.68;100.00;95300.91;4856924;29;20033;-54
2023/03/15 02:00:21;;;;;;;3.42;2.00;;;6.50;66.90;;;1.66;100.00;95303.75;4860563;29;20056;-50
2023/03/15 02:02:57;;;;;;;5.90;2.28;;;6.40;66.70;;;1.66;100.00;95305.56;4855552;29;20041;-54
2023/03/15 02:05:34;;;;;;;3.72;2.10;;;6.50;66.90;;;1.67;100.00;95313.22;4856792;29;20025;-51
2023/03/15 02:08:03;;;;;;;6.63;2.17;;;6.50;66.90;;;1.67;100.00;95315.06;4856711;29;20036;-55
2023/03/15 02:10:49;;;;;;;3.40;2.05;;;6.50;66.90;;;1.66;100.00;95316.88;4860132;29;20047;-55
2023/03/15 02:13:22;;;;;;;2.75;1.83;;;6.50;66.90;;;1.67;100.00;95320.31;4832414;29;20029;-53
2023/03/15 02:15:49;;;;;;;2.40;1.70;;;6.50;66.80;;;1.62;100.00;95319.13;4857510;29;20052;-54
2023/03/15 02:18:16;;;;;;;4.07;1.58;;;6.50;66.70;;;1.65;99.79;95325.75;4856888;29;20034;-55
2023/03/15 02:21:26;;;;;;;2.92;1.40;;;6.50;66.70;;;1.65;99.28;95333.63;4860307;29;20033;-55
2023/03/15 02:24:23;;;;;;;2.70;1.75;;;6.50;66.70;;;1.62;99.34;95332.25;4840192;29;20392;-54
2023/03/15 02:26:57;;;;;;;3.10;1.25;;;6.40;66.70;;;1.57;99.16;95329.47;4860481;29;20033;-51
2023/03/15 02:29:27;;;;;;;1.67;1.30;;;6.40;66.60;;;1.56;99.22;95334.91;4859428;29;20031;-52
2023/03/15 02:31:56;;;;;;;4.60;1.60;;;6.40;66.50;;;1.52;99.31;95331.13;4858891;29;20480;-53
2023/03/15 02:34:24;;;;;;;4.38;1.65;;;6.40;66.40;;;1.47;99.53;95344.06;4844818;29;20037;-53
2023/03/15 02:36:52;;;;;;;3.90;1.40;;;6.30;66.20;;;1.35;99.10;95351.84;4843943;29;20511;-52
2023/03/15 02:39:22;;;;;;;2.58;1.30;;;6.20;66.20;;;1.27;99.47;95352.09;4842045;29;20031;-55
2023/03/15 02:41:57;;;;;;;2.58;1.50;;;6.20;66.10;;;1.14;98.66;95355.59;4842059;29;20037;-58
2023/03/15 02:44:38;;;;;;;3.22;1.50;;;6.10;66.10;;;1.04;98.89;95357.88;4848066;29;20503;-56
2023/03/15 02:47:15;;;;;;;2.95;1.35;;;6.00;66.00;;;0.97;99.00;95368.38;4841991;29;20128;-56
2023/03/15 02:49:50;;;;;;;2.65;1.55;;;5.90;65.90;;;0.83;99.52;95366.88;4851666;29;20025;-54
2023/03/15 02:52:17;;;;;;;2.63;1.63;;;5.80;65.90;;;0.77;99.67;95367.69;4853199;29;20089;-55
2023/03/15 02:54:42;;;;;;;3.67;1.70;;;5.80;66.70;;;0.71;99.58;95374.56;4842668;29;20029;-52
2023/03/15 02:57:12;;;;;;;4.18;1.55;;;5.70;65.90;;;0.64;99.90;95369.34;4841589;29;20037;-52
2023/03/15 02:59:38;;;;;;;1.95;1.48;;;5.60;66.70;;;0.56;99.75;95371.41;4851171;29;20127;-52
2023/03/15 03:02:05;;;;;;;3.72;1.55;;;5.60;65.90;;;0.49;100.00;95375.84;4850941;29;20045;-57
2023/03/15 03:04:31;;;;;;;4.22;1.70;;;5.50;65.90;;;0.34;100.00;95373.47;4845994;29;20108;-55
2023/03/15 03:06:57;;;;;;;1.88;1.20;;;5.30;65.70;;;0.25;100.00;95378.13;4845549;29;20037;-56
2023/03/15 03:09:24;;;;;;;1.90;1.20;;;5.20;65.70;;;0.12;100.00;95384.19;4852462;29;20103;-57
2023/03/15 03:11:50;;;;;;;2.50;1.50;;;5.20;65.80;;;0.05;100.00;95388.63;4851927;29;20120;-52
2023/03/15 03:14:16;;;;;;;3.22;1.20;;;5.00;65.70;;;-0.04;100.00;95395.91;4841158;29;20124;-56
2023/03/15 03:16:42;;;;;;;1.83;1.30;;;4.90;65.70;;;-0.13;100.00;95396.31;4841425;29;20497;-54
2023/03/15 03:19:13;;;;;;;2.55;1.50;;;4.90;65.70;;;-0.20;99.17;95395.50;4866988;29;20035;-55
2023/03/15 03:21:42;;;;;;;2.00;1.55;;;4.80;65.70;;;-0.32;99.75;95405.78;4841846;29;20025;-51
2023/03/15 03:24:08;;;;;;;2.40;1.55;;;4.70;65.60;;;-0.41;100.00;95407.75;4844294;29;20025;-56
2023/03/15 03:26:36;;;;;;;3.75;1.70;;;4.60;65.70;;;-0.54;100.00;95405.16;4863421;29;20477;-54
2023/03/15 03:29:06;;;;;;;4.47;1.85;;;4.50;65.70;;;-0.63;100.00;95416.78;4853784;29;20059;-52
2023/03/15 03:31:32;;;;;;;2.17;1.65;;;4.40;65.70;;;-0.74;100.00;95418.19;4849602;29;20032;-50
2023/03/15 03:33:59;;;;;;;4.25;1.25;;;4.30;65.80;;;-0.83;100.00;95422.78;4843751;29;20469;-54
2023/03/15 03:36:25;;;;;;;6.40;1.60;;;4.20;65.80;;;-0.95;100.00;95425.16;4840946;29;20037;-55
2023/03/15 03:38:53;;;;;;;1.75;1.58;;;4.20;65.90;;;-0.99;100.00;95429.19;4842527;29;20032;-55
2023/03/15 03:41:20;;;;;;;3.05;1.55;;;4.10;66.00;;;-1.00;100.00;95434.63;4840926;29;20112;-51
2023/03/15 03:43:46;;;;;;;1.90;1.50;;;4.00;66.00;;;-1.07;100.00;95429.34;4845281;29;20393;-56
2023/03/15 03:46:12;;;;;;;3.25;1.42;;;3.90;66.00;;;-1.11;100.00;95433.38;4840992;29;20029;-57
2023/03/15 03:48:38;;;;;;;3.38;1.60;;;3.90;66.10;;;-1.12;100.00;95433.56;4841769;29;20067;-53
2023/03/15 03:51:04;;;;;;;2.35;1.60;;;3.80;66.20;;;-1.14;100.00;95440.78;4848273;29;20069;-54
2023/03/15 03:53:30;;;;;;;2.65;1.60;;;3.80;66.40;;;-1.19;100.00;95438.78;4840958;29;20483;-55
2023/03/15 03:55:56;;;;;;;4.35;1.70;;;3.70;66.40;;;-1.23;100.00;95446.16;4852230;29;20132;-54
2023/03/15 03:58:22;;;;;;;2.15;1.42;;;3.70;66.50;;;-1.28;100.00;95440.75;4870105;29;20018;-57
2023/03/15 04:00:48;;;;;;;4.97;1.70;;;3.60;66.50;;;-1.30;100.00;95455.78;4838854;29;21849;-57
2023/03/15 04:03:14;;;;;;;5.18;1.67;;;3.60;66.60;;;-1.32;100.00;95457.78;4857655;29;20041;-53
2023/03/15 04:05:40;;;;;;;3.65;1.58;;;3.60;66.70;;;-1.33;100.00;95455.38;4858379;29;20036;-53
2023/03/15 04:08:06;;;;;;;3.97;1.70;;;3.60;66.90;;;-1.35;100.00;95466.00;4857864;29;20028;-54
2023/03/15 04:10:33;;;;;;;3.05;1.80;;;3.60;66.90;;;-1.43;100.00;95468.81;4858593;29;20028;-50
2023/03/15 04:13:00;;;;;;;4.47;1.63;;;3.50;66.90;;;-1.46;100.00;95469.97;4857611;29;20109;-52
2023/03/15 04:15:26;;;;;;;4.25;1.73;;;3.50;67.70;;;-1.44;100.00;95469.81;4858906;29;20493;-50
2023/03/15 04:17:54;;;;;;;5.15;1.40;;;3.50;67.00;;;-1.44;100.00;95480.25;4858708;29;20037;-52
2023/03/15 04:20:26;;;;;;;2.25;1.45;;;3.50;67.00;;;-1.44;100.00;95480.25;4857640;29;20032;-54
2023/03/15 04:22:53;;;;;;;4.23;1.33;;;3.50;67.10;;;-1.47;100.00;95478.84;4858922;29;20055;-57
2023/03/15 04:25:20;;;;;;;4.22;1.50;;;3.40;67.00;;;-1.48;100.00;95479.00;4857799;29;20028;-55
2023/03/15 04:27:57;;;;;;;4.32;1.80;;;3.40;67.10;;;-1.48;100.00;95485.03;4858783;29;20040;-53
2023/03/15 04:30:28;;;;;;;2.50;1.50;;;3.40;67.20;;;-1.49;100.00;95480.00;4858003;29;20017;-57
2023/03/15 04:33:02;;;;;;;9.93;1.63;;;3.40;67.30;;;-1.49;100.00;95495.69;4850531;29;20080;-55
2023/03/15 04:35:35;;;;;;;5.72;1.75;;;3.40;67.30;;;-1.52;100.00;95491.66;4858701;29;20072;-55
2023/03/15 04:38:03;;;;;;;;;;;3.40;67.30;;;-1.59;100.00;95495.22;4858088;29;20025;-53
2023/03/15 04:40:33;;;;;;;2.35;1.35;;;3.40;67.10;;;-1.58;100.00;95499.44;4858726;29;19907;-55
2023/03/15 04:43:03;;;;;;;5.15;1.30;;;3.40;67.20;;;-1.54;100.00;95508.50;4856085;29;20033;-52
2023/03/15 04:45:31;;;;;;;2.72;1.25;;;3.40;67.30;;;-1.55;100.00;95506.91;4858274;29;20104;-56
2023/03/15 04:47:58;;;;;;;4.35;1.40;;;3.40;67.30;;;-1.55;100.00;95506.91;4858593;29;20040;-52
2023/03/15 04:50:24;;;;;;;2.38;1.33;;;3.40;67.30;;;-1.52;100.00;95504.72;4857596;29;20033;-56
2023/03/15 04:52:50;;;;;;;4.68;1.60;;;3.40;67.30;;;-1.55;100.00;95512.13;4858522;29;20052;-57
2023/03/15 04:55:16;;;;;;;3.90;1.75;;;3.40;67.20;;;-1.53;100.00;95502.31;4856268;29;20029;-51
2023/03/15 04:57:42;;;;;;;10.13;2.15;;;3.40;67.20;;;-1.53;100.00;95508.34;4858584;29;20392;-55
2023/03/15 05:00:11;;;;;;;3.03;1.67;;;3.40;67.30;;;-1.56;100.00;95513.13;4858302;29;20039;-56
2023/03/15 05:02:40;;;;;;;2.63;1.75;;;3.40;67.30;;;-1.60;100.00;95509.28;4861023;29;20041;-56
2023/03/15 05:05:11;;;;;;;9.48;2.03;;;3.40;67.30;;;-1.57;100.00;95512.31;4858493;29;20068;-54
2023/03/15 05:07:38;;;;;;;6.13;2.00;;;3.40;67.40;;;-1.56;100.00;95510.53;4857645;29;20029;-57
2023/03/15 05:10:06;;;;;;;7.63;2.13;;;3.40;68.10;;;-1.60;100.00;95517.91;4857058;29;20031;-55
2023/03/15 05:12:33;;;;;;;1.92;1.70;;;3.30;67.40;;;-1.60;100.00;95515.28;4857179;29;20025;-51
2023/03/15 05:14:59;;;;;;;4.97;1.95;;;3.30;67.30;;;-1.60;100.00;95515.28;4856948;29;20025;-55
2023/03/15 05:17:25;;;;;;;4.32;1.90;;;3.30;67.40;;;-1.58;100.00;95515.13;4858419;29;20032;-55
2023/03/15 05:19:51;;;;;;;2.75;1.45;;;3.30;67.40;;;-1.60;100.00;95522.34;4860774;29;20036;-52
2023/03/15 05:22:17;;;;;;;2.20;1.58;;;3.30;67.40;;;-1.63;100.00;95524.34;4861590;29;20044;-53
2023/03/15 05:24:44;;;;;;;3.47;1.75;;;3.30;67.40;;;-1.68;100.00;95533.75;4860627;29;20052;-54
2023/03/15 05:27:12;;;;;;;3.72;1.75;;;3.20;67.30;;;-1.73;100.00;95534.28;4861431;29;20760;-53
2023/03/15 05:29:38;;;;;;;3.72;1.55;;;3.20;67.30;;;-1.84;100.00;95542.66;4861842;29;20044;-58
2023/03/15 05:32:04;;;;;;;5.13;1.83;;;3.20;67.20;;;-1.81;100.00;95541.47;4859239;29;20146;-51
2023/03/15 05:34:31;;;;;;;10.45;2.28;;;3.20;67.30;;;-1.81;100.00;95544.09;4861543;29;20024;-57
2023/03/15 05:36:58;;;;;;;5.53;2.50;;;3.20;67.40;;;-1.81;100.00;95544.09;4860371;29;20041;-57
2023/03/15 05:39:24;;;;;;;6.63;2.08;;;3.20;67.50;;;-1.83;100.00;95544.25;4861302;29;20056;-53
2023/03/15 05:41:50;;;;;;;6.03;2.20;;;3.20;67.50;;;-1.84;100.00;95550.50;4861280;29;20482;-57
2023/03/15 05:44:16;;;;;;;5.28;2.05;;;3.20;67.60;;;-1.78;100.00;95559.38;4860653;29;20032;-56
2023/03/15 05:46:43;;;;;;;12.27;2.55;;;3.20;67.70;;;-1.75;100.00;95556.41;4875452;29;20061;-52
2023/03/15 05:49:09;;;;;;;7.55;2.55;;;3.30;67.90;;;-1.67;100.00;95571.91;4860599;29;20514;-57
2023/03/15 05:51:35;;;;;;;6.03;1.92;;;3.30;68.70;;;-1.60;100.00;95577.19;4861083;29;20108;-51
2023/03/15 05:54:01;;;;;;;5.22;2.53;;;3.40;68.00;;;-1.55;100.00;95577.44;4861051;29;20120;-55
2023/03/15 05:56:27;;;;;;;7.80;2.47;;;3.50;68.00;;;-1.52;100.00;95580.47;4860284;29;20088;-56
2023/03/15 05:58:52;;;;;;;5.35;2.75;;;3.50;67.90;;;-1.48;100.00;95576.47;4861016;29;20029;-54
2023/03/15 06:01:18;;;;;;;4.60;2.65;;;3.60;67.90;;;-1.45;100.00;95581.34;4859764;29;20124;-51
2023/03/15 06:03:44;;;;;;;9.20;3.38;;;3.60;67.80;;;-1.40;100.00;95586.00;4860479;29;20051;-52
2023/03/15 06:06:10;;;;;;;5.32;2.33;;;3.70;67.80;;;-1.35;100.00;95581.00;4861073;29;20115;-52
2023/03/15 06:08:36;;;;;;;5.05;2.10;;;3.70;67.70;;;-1.33;100.00;95591.28;4859892;29;20037;-51
2023/03/15 06:11:01;;;;;;;8.48;2.58;;;3.80;67.60;;;-1.33;100.00;95591.28;4860784;29;20047;-55
2023/03/15 06:13:27;;;;;;;4.80;2.40;;;3.80;67.50;;;-1.32;100.00;95595.50;4859577;29;20039;-58
2023/03/15 06:15:53;;;;;;;5.63;2.03;;;3.80;67.40;;;-1.36;100.00;95586.44;4860948;29;20108;-57
2023/03/15 06:18:19;;;;;;;9.10;2.50;;;3.80;67.30;;;-1.34;100.00;95592.28;4855291;29;20025;-55
2023/03/15 06:20:45;;;;;;;7.32;2.40;;;3.80;67.20;;;-1.33;100.00;95589.47;4863991;29;20033;-53
2023/03/15 06:23:11;;;;;;;5.57;2.15;;;3.80;67.20;;;-1.35;100.00;95583.63;4860031;29;20051;-54
2023/03/15 06:25:36;;;;;;;8.93;2.70;;;3.80;67.20;;;-1.34;100.00;95592.28;4842502;29;20029;-56
2023/03/15 06:28:02;;;;;;;10.45;2.70;;;3.80;67.10;;;-1.35;100.00;95585.44;4860434;29;20052;-54
2023/03/15 06:30:28;;;;;;;3.80;2.10;;;3.80;67.10;;;-1.36;100.00;95589.03;4856593;29;20029;-56
2023/03/15 06:32:54;;;;;;;11.43;2.78;;;3.80;67.80;;;-1.36;100.00;95594.28;4860104;29;20388;-52
2023/03/15 06:35:21;;;;;;;4.75;2.10;;;3.80;67.10;;;-1.40;100.00;95596.47;4855732;29;20036;-54
2023/03/15 06:37:47;;;;;;;4.15;1.90;;;3.80;67.10;;;-1.33;100.00;95593.88;4865579;29;20467;-54
2023/03/15 06:40:13;;;;;;;4.65;2.03;;;3.80;67.20;;;-1.27;100.00;95601.78;4860297;29;20103;-55
2023/03/15 06:42:43;;;;;;;6.15;2.60;;;3.80;67.30;;;-1.24;100.00;95598.78;4859021;29;20116;-54
2023/03/15 06:45:10;;;;;;;9.48;2.08;;;3.90;67.40;;;-1.18;100.00;95599.84;4860291;29;20077;-57
2023/03/15 06:47:37;;;;;;;7.55;2.20;;;3.90;67.40;;;-1.12;100.00;95603.50;4860166;29;20033;-54
2023/03/15 06:50:04;;;;;;;7.20;2.50;;;4.00;68.20;;;-1.09;100.00;95596.06;4859464;29;20347;-52
2023/03/15 06:52:30;;;;;;;7.50;2.70;;;4.10;67.50;;;-1.03;100.00;95605.78;4864990;29;20039;-55
2023/03/15 06:54:55;;;;;;;6.32;3.05;;;4.10;67.50;;;-0.95;100.00;95600.38;4859207;29;20024;-53
2023/03/15 06:57:21;;;;;;;6.38;2.50;;;4.20;67.60;;;-0.84;100.00;95611.31;4858841;29;20037;-55
2023/03/15 06:59:47;;;;;;;5.10;3.05;;;4.30;67.60;;;-0.72;100.00;95610.59;4859173;29;20084;-58
2023/03/15 07:02:17;;;;;;;6.72;3.08;;;4.50;67.70;;;-0.57;100.00;95613.06;4859910;29;20044;-58
2023/03/15 07:04:44;;;;;;;6.45;2.92;;;4.60;67.70;;;-0.42;100.00;95612.94;4859732;29;20481;-58
2023/03/15 07:07:12;;;;;;;6.03;2.70;;;4.80;68.40;;;-0.32;100.00;95610.75;4853482;29;20493;-57
2023/03/15 07:09:39;;;;;;;4.20;2.38;;;4.90;67.60;;;-0.18;100.00;95614.25;4859378;29;20025;-59
2023/03/15 07:12:06;;;;;;;5.95;2.75;;;5.10;67.60;;;-0.04;100.00;95620.31;4859578;29;20485;-58
2023/03/15 07:14:35;;;;;;;6.47;3.58;;;5.30;67.50;;;0.13;100.00;95615.53;4856676;29;20035;-59
2023/03/15 07:17:01;;;;;;;7.75;3.70;;;5.60;67.40;;;0.42;100.00;95624.84;4858251;29;20032;-58
2023/03/15 07:19:27;;;;;;;7.00;3.80;;;5.90;67.30;;;0.78;100.00;95628.91;4857200;29;20024;-57
2023/03/15 07:21:52;;;;;;;7.85;3.78;;;6.40;67.20;;;1.12;100.00;95628.66;4859400;29;20546;-57
2023/03/15 07:24:18;;;;;;;12.60;3.83;;;6.80;66.90;;;1.48;100.00;95630.03;4858802;29;20033;-59
2023/03/15 07:26:44;;;;;;;6.20;3.60;;;7.20;66.70;;;1.94;100.00;95630.84;4858370;29;20445;-57
2023/03/15 07:29:10;;;;;;;6.38;3.50;;;7.70;66.50;;;2.26;99.72;95634.34;4859268;29;20032;-59
2023/03/15 07:31:36;;;;;;;7.53;3.45;;;8.10;66.30;;;2.66;98.54;95642.78;4856283;29;20441;-59
2023/03/15 07:34:02;;;;;;;3.85;2.72;;;8.60;65.90;;;2.99;94.72;95647.00;4854524;29;20049;-59
2023/03/15 07:36:27;;;;;;;7.63;3.10;;;9.00;65.40;;;3.29;90.13;95649.78;4858497;29;20466;-59
2023/03/15 07:38:53;;;;;;;4.38;2.50;;;9.40;65.00;;;3.59;89.06;95651.72;4859047;29;20052;-59
2023/03/15 07:41:19;;;;;;;6.05;2.55;;;9.80;64.70;;;3.94;88.07;95652.72;4858229;29;20469;-58
2023/03/15 07:43:45;;;;;;;2.80;1.90;;;10.20;64.20;;;4.20;81.39;95657.91;4858121;29;20035;-54
2023/03/15 07:46:11;;;;;;;1.50;1.30;;;10.50;63.60;;;4.30;76.30;95643.16;4858893;29;20480;-56
2023/03/15 07:48:37;;;;;;;2.47;1.77;;;10.80;62.70;;;4.52;74.66;95647.94;4855331;29;20072;-56
2023/03/15 07:51:04;;;;;;;2.67;1.38;;;11.10;61.90;;;4.73;71.60;95646.63;4858160;29;20025;-57
2023/03/15 07:53:30;;;;;;;3.00;1.20;;;11.40;61.90;;;5.07;71.51;95645.88;4841948;29;20031;-58
2023/03/15 07:55:55;;;;;;;2.72;1.42;;;11.70;60.60;;;5.39;70.19;95642.09;4857900;29;20037;-56
2023/03/15 07:58:21;;;;;;;2.45;1.00;;;12.00;60.10;;;5.67;67.75;95647.50;4858866;29;20020;-59
2023/03/15 08:00:47;;;;;;;3.38;1.45;;;12.30;59.70;;;5.97;67.59;95651.84;4853404;29;20028;-55
2023/03/15 08:03:13;;;;;;;3.10;1.10;;;12.60;59.30;;;6.30;66.88;95653.00;4859049;29;20048;-54
2023/03/15 08:05:39;;;;;;;2.10;1.30;;;12.90;58.80;;;6.33;63.63;95656.00;4864486;29;20441;-57
2023/03/15 08:08:05;;;;;;;1.85;1.20;;;13.10;58.10;;;6.29;63.87;95654.84;4857781;29;20021;-57
2023/03/15 08:10:31;;;;;;;3.08;1.45;;;13.20;57.10;;;6.47;63.06;95651.22;4856561;29;20051;-56
2023/03/15 08:12:57;;;;;;;2.38;1.30;;;13.30;56.70;;;6.76;62.73;95653.84;4857768;29;20032;-57
2023/03/15 08:15:23;;;;;;;4.30;1.50;;;13.40;56.20;;;6.82;59.62;95652.91;4858495;29;20505;-57
2023/03/15 08:17:49;;;;;;;1.83;1.33;;;13.60;55.80;;;7.05;60.03;95647.47;4858084;29;20036;-57
2023/03/15 08:20:16;;;;;;;3.38;1.50;;;13.80;55.70;;;7.02;58.49;95645.31;4857521;29;20029;-57
2023/03/15 08:22:50;;;;;;;2.03;1.30;;;14.00;55.20;;;7.27;59.63;95647.56;4858717;29;20029;-54
2023/03/15 08:25:23;;;;;;;1.40;1.20;;;14.20;54.60;;;7.46;60.02;95656.06;4857823;29;20025;-57
2023/03/15 08:27:50;;;;;;;;;;;14.30;54.30;;;7.78;60.58;95650.13;4859059;29;20131;-57
2023/03/15 08:30:20;;;;;;;1.95;1.30;;;14.50;55.00;;;7.71;56.49;95649.47;4858539;29;20339;-51
2023/03/15 08:32:50;;;;;;;1.67;1.30;;;14.80;54.80;;;7.26;59.37;95650.44;4857369;29;20061;-53
2023/03/15 08:35:20;;;;;;;2.50;1.40;;;14.90;53.30;;;7.52;60.23;95651.59;4858403;29;20060;-55
2023/03/15 08:37:47;;;;;;;1.40;1.30;;;14.80;53.00;;;7.81;58.18;95649.63;4856793;29;20036;-54
2023/03/15 08:40:17;;;;;;;4.97;1.50;;;15.00;52.90;;;8.16;56.97;95651.94;4859748;29;20031;-52
2023/03/15 08:42:44;;;;;;;1.83;1.40;;;15.30;52.60;;;8.39;56.91;95642.13;4857283;29;20077;-54
2023/03/15 08:45:10;;;;;;;2.28;1.45;;;15.40;52.30;;;8.57;56.21;95641.81;4858627;29;20477;-55
2023/03/15 08:47:37;;;;;;;2.13;1.40;;;15.50;51.90;;;8.43;57.61;95651.19;4858574;29;20492;-53
2023/03/15 08:50:13;;;;;;;2.20;1.50;;;15.40;51.60;;;8.36;56.83;95651.34;4857193;29;20465;-57
2023/03/15 08:52:41;;;;;;;1.65;1.27;;;15.50;51.20;;;8.34;56.90;95648.16;4865861;29;20033;-51
2023/03/15 08:55:08;;;;;;;1.67;1.10;;;15.40;51.10;;;8.53;56.12;95646.00;4861011;29;20079;-54
2023/03/15 08:57:34;;;;;;;1.17;1.10;;;15.50;50.80;;;8.30;55.59;95645.22;4861743;29;20029;-54
2023/03/15 09:00:16;;;;;;;2.05;1.30;;;15.30;50.40;;;7.91;55.43;95646.31;4862004;29;20080;-51
2023/03/15 09:02:42;;;;;;;1.42;0.90;;;14.90;49.90;;;7.02;53.28;95647.97;4860352;29;20048;-51
2023/03/15 09:05:10;;;;;;;1.27;0.80;;;14.50;49.30;;;6.95;56.19;95642.78;4862225;29;20397;-50
2023/03/15 09:07:43;;;;;;;1.60;1.00;;;14.30;49.00;;;7.06;54.40;95638.47;4860871;29;20028;-54
2023/03/15 09:10:13;;;;;;;1.58;1.05;;;14.20;48.80;;;7.36;55.86;95640.81;4861738;29;20035;-51
2023/03/15 09:12:45;;;;;;;0.85;0.80;;;14.40;48.80;;;7.92;53.87;95643.41;4858325;29;20044;-50
2023/03/15 09:15:12;;;;;;;2.00;0.75;;;14.80;48.60;;;8.03;55.17;95642.50;4854806;29;20385;-50
2023/03/15 09:17:39;;;;;;;1.17;1.02;;;15.00;48.40;;;7.95;50.93;95647.41;4861684;29;20052;-50
2023/03/15 09:20:13;;;;;;;3.33;1.00;;;15.10;47.80;;;8.50;52.13;95651.81;4859295;29;20048;-53
2023/03/15 09:22:48;;;;;;;0.90;0.80;;;15.30;47.40;;;8.82;51.85;95645.75;4859329;29;20077;-50
2023/03/15 09:25:14;;;;;;;1.50;0.90;;;15.70;47.60;;;8.99;46.73;95652.56;4829412;29;20550;-56
2023/03/15 09:27:40;;;;;;;1.48;0.98;;;16.10;47.00;;;9.05;51.95;95656.06;4861667;29;20070;-53
2023/03/15 09:30:08;;;;;;;1.48;0.77;;;16.30;46.50;;;9.18;50.14;95662.81;4861624;29;20025;-55
2023/03/15 09:32:35;;;;;;;0.77;0.60;;;16.30;46.00;;;8.98;48.63;95660.78;4860267;29;20049;-55
2023/03/15 09:35:09;;;;;;;0.68;0.68;;;16.20;45.50;;;8.71;46.71;95664.25;4861402;29;20047;-54
2023/03/15 09:37:35;;;;;;;1.13;0.63;;;16.00;44.80;;;8.19;48.19;95669.22;4860325;29;20024;-54
2023/03/15 09:40:01;;;;;;;1.08;0.63;;;15.50;44.60;;;7.49;48.64;95674.13;4861716;29;20056;-51
2023/03/15 09:43:04;;;;;;;0.88;0.73;;;15.00;44.00;;;7.38;49.60;95670.50;4861094;29;20068;-54
2023/03/15 09:46:15;;;;;;;1.67;1.10;;;14.70;43.90;;;7.58;49.56;95672.66;4860307;29;20025;-51
2023/03/15 09:49:30;;;;;;;0.93;0.93;;;15.00;44.20;;;8.13;49.93;95668.34;4858644;29;20436;-58
2023/03/15 09:52:27;;;;;;;1.45;0.70;;;15.50;44.20;;;8.34;45.88;95666.75;4834869;29;20048;-55
2023/03/15 09:55:20;;;;;;;0.70;0.70;;;15.90;43.60;;;8.89;49.09;95670.25;4792947;29;20052;-53
2023/03/15 09:58:10;;;;;;;2.27;0.80;;;16.40;43.00;;;9.31;46.05;95672.22;4835259;29;20385;-54
2023/03/15 10:00:46;;;;;;;1.10;0.90;;;16.80;42.70;;;9.76;44.35;95679.72;4854806;29;20344;-53
2023/03/15 10:03:38;;;;;;;2.35;1.05;;;17.30;42.50;;;10.11;43.42;95675.66;4855593;29;20037;-53
2023/03/15 10:06:33;;;;;;;1.23;0.80;;;17.70;42.10;;;10.14;44.52;95680.47;4855122;29;20411;-52
2023/03/15 10:09:12;;;;;;;0.70;0.70;;;18.10;41.30;;;10.23;42.67;95678.13;4857002;29;20052;-55
2023/03/15 10:12:07;;;;;;;1.20;1.10;;;18.40;40.30;;;10.72;42.62;95680.44;4839101;29;20092;-54
2023/03/15 10:15:27;;;;;;;2.85;0.90;;;18.70;40.10;;;11.25;41.89;95679.22;4858712;29;20040;-51
2023/03/15 10:18:37;;;;;;;1.25;0.90;;;19.20;40.10;;;11.34;40.64;95676.78;4858665;29;20094;-52
2023/03/15 10:21:14;;;;;;;0.90;0.90;;;19.50;39.30;;;11.22;43.75;95673.59;4857971;29;20408;-54
2023/03/15 10:23:53;;;;;;;0.98;0.90;;;19.70;38.60;;;11.38;42.18;95674.41;4859344;29;20029;-54
2023/03/15 10:26:31;;;;;;;0.82;0.80;;;20.00;37.70;;;11.76;41.08;95673.03;4859542;29;20080;-51
2023/03/15 10:28:59;;;;;;;1.00;0.90;;;20.10;37.30;;;11.46;38.68;95674.66;4844676;29;20033;-55
2023/03/15 10:31:36;;;;;;;0.90;0.90;;;20.00;37.20;;;11.42;39.00;95680.81;4853626;29;20032;-55
2023/03/15 10:34:02;;;;;;;1.20;0.80;;;19.70;36.60;;;11.28;41.07;95678.69;4856454;29;20089;-51